createdAt,value
2023-02-12T00:00:39.884Z,18.30
2023-02-12T00:03:13.502Z,16.50
2023-02-12T00:05:42.066Z,17.20
2023-02-12T00:08:12.306Z,17.00
2023-02-12T00:10:48.471Z,17.40
2023-02-12T00:13:18.059Z,16.80
2023-02-12T00:15:46.575Z,15.20
2023-02-12T00:18:20.667Z,15.50
2023-02-12T00:20:54.456Z,16.60
2023-02-12T00:23:27.958Z,16.40
2023-02-12T00:25:56.937Z,16.90
2023-02-12T00:28:26.102Z,13.90
2023-02-12T00:30:54.605Z,15.00
2023-02-12T00:33:24.850Z,15.30
2023-02-12T00:35:59.267Z,14.20
2023-02-12T00:38:27.549Z,15.60
2023-02-12T00:40:56.126Z,15.00
2023-02-12T00:43:27.529Z,15.00
2023-02-12T00:45:56.524Z,14.20
2023-02-12T00:48:35.600Z,13.00
2023-02-12T00:51:09.000Z,13.50
2023-02-12T00:53:42.809Z,13.00
2023-02-12T00:56:11.373Z,13.70
2023-02-12T00:58:39.716Z,13.80
2023-02-12T01:01:15.012Z,14.00
2023-02-12T01:03:44.788Z,14.70
2023-02-12T01:06:12.938Z,13.30
2023-02-12T01:08:46.665Z,12.20
2023-02-12T01:11:20.611Z,12.70
2023-02-12T01:13:51.418Z,12.90
2023-02-12T01:16:21.909Z,12.50
2023-02-12T01:18:55.501Z,12.90
2023-02-12T01:21:31.135Z,11.10
2023-02-12T01:23:59.402Z,12.90
2023-02-12T01:26:28.911Z,11.10
2023-02-12T01:28:59.374Z,12.10
2023-02-12T01:31:30.890Z,13.10
2023-02-12T01:34:04.906Z,13.30
2023-02-12T01:36:34.825Z,13.50
2023-02-12T01:39:04.614Z,12.00
2023-02-12T01:41:36.255Z,12.80
2023-02-12T01:44:21.522Z,11.30
2023-02-12T01:46:55.110Z,11.80
2023-02-12T01:49:27.106Z,9.90
2023-02-12T01:52:19.882Z,11.10
2023-02-12T01:54:49.468Z,11.40
2023-02-12T01:57:19.076Z,12.20
2023-02-12T01:59:49.278Z,11.80
2023-02-12T02:02:17.577Z,13.30
2023-02-12T02:04:51.345Z,11.30
2023-02-12T02:07:24.774Z,10.90
2023-02-12T02:09:54.076Z,11.20
2023-02-12T02:12:44.781Z,13.70
2023-02-12T02:15:14.278Z,11.80
2023-02-12T02:17:47.677Z,12.60
2023-02-12T02:20:22.932Z,12.30
2023-02-12T02:23:07.072Z,12.40
2023-02-12T02:25:55.196Z,11.80
2023-02-12T02:28:34.204Z,10.60
2023-02-12T02:31:05.437Z,9.90
2023-02-12T02:33:54.442Z,11.00
2023-02-12T02:36:35.310Z,12.40
2023-02-12T02:39:15.350Z,11.90
2023-02-12T02:42:00.932Z,12.40
2023-02-12T02:44:46.946Z,12.00
2023-02-12T02:47:15.666Z,10.80
2023-02-12T02:49:58.231Z,11.00
2023-02-12T02:52:42.074Z,11.80
2023-02-12T02:55:11.375Z,12.60
2023-02-12T02:57:51.770Z,13.40
2023-02-12T03:00:22.219Z,12.80
2023-02-12T03:03:05.128Z,12.60
2023-02-12T03:05:40.978Z,10.80
2023-02-12T03:08:15.054Z,9.70
2023-02-12T03:10:46.320Z,10.20
2023-02-12T03:13:47.260Z,12.00
2023-02-12T03:16:21.705Z,13.50
2023-02-12T03:19:02.215Z,12.10
2023-02-12T03:21:43.089Z,11.70
2023-02-12T03:24:28.191Z,11.50
2023-02-12T03:27:19.782Z,13.30
2023-02-12T03:29:48.294Z,14.80
2023-02-12T03:33:19.722Z,15.00
2023-02-12T03:36:16.168Z,12.40
2023-02-12T03:38:47.513Z,13.40
2023-02-12T03:41:19.574Z,12.40
2023-02-12T03:44:04.530Z,12.90
2023-02-12T03:46:41.429Z,14.00
2023-02-12T03:49:18.077Z,13.30
2023-02-12T03:51:46.382Z,14.70
2023-02-12T03:54:20.695Z,14.70
2023-02-12T03:57:08.828Z,14.00
2023-02-12T03:59:43.138Z,13.80
2023-02-12T04:02:11.688Z,13.80
2023-02-12T04:04:40.171Z,13.10
2023-02-12T04:07:10.029Z,14.70
2023-02-12T04:09:38.395Z,14.10
2023-02-12T04:12:22.553Z,12.70
2023-02-12T04:15:17.019Z,12.80
2023-02-12T04:18:17.356Z,13.20
2023-02-12T04:20:49.040Z,14.40
2023-02-12T04:23:39.006Z,14.50
2023-02-12T04:26:33.524Z,13.40
2023-02-12T04:29:01.776Z,13.00
2023-02-12T04:31:30.935Z,14.20
2023-02-12T04:34:15.938Z,14.30
2023-02-12T04:36:55.070Z,14.30
2023-02-12T04:39:26.522Z,14.20
2023-02-12T04:41:59.300Z,13.60
2023-02-12T04:44:34.751Z,14.30
2023-02-12T04:47:05.887Z,13.30
2023-02-12T04:49:34.268Z,14.80
2023-02-12T04:52:02.749Z,14.10
2023-02-12T05:02:20.736Z,14.80
2023-02-12T05:04:50.607Z,16.10
2023-02-12T05:07:18.825Z,14.60
2023-02-12T05:09:47.680Z,14.10
2023-02-12T05:12:15.994Z,17.30
2023-02-12T05:14:46.986Z,17.30
2023-02-12T05:17:15.603Z,15.90
2023-02-12T05:19:43.861Z,14.60
2023-02-12T05:22:13.293Z,15.90
2023-02-12T05:24:46.794Z,16.30
2023-02-12T05:27:15.069Z,15.20
2023-02-12T05:29:43.452Z,16.60
2023-02-12T05:32:11.985Z,16.90
2023-02-12T05:34:40.715Z,16.10
2023-02-12T05:37:09.195Z,15.30
2023-02-12T05:39:37.636Z,16.00
2023-02-12T05:42:10.943Z,17.20
2023-02-12T05:44:47.435Z,17.50
2023-02-12T05:47:15.751Z,16.30
2023-02-12T05:49:43.989Z,15.90
2023-02-12T05:52:12.681Z,14.20
2023-02-12T05:54:40.886Z,14.90
2023-02-12T05:57:09.228Z,15.40
2023-02-12T05:59:42.402Z,17.70
2023-02-12T06:02:10.789Z,16.20
2023-02-12T06:04:39.121Z,14.80
2023-02-12T06:07:08.197Z,15.70
2023-02-12T06:09:36.645Z,16.60
2023-02-12T06:12:05.047Z,17.30
2023-02-12T06:14:33.385Z,16.70
2023-02-12T06:17:03.293Z,17.00
2023-02-12T06:19:31.758Z,15.30
2023-02-12T06:22:00.481Z,15.40
2023-02-12T06:24:32.814Z,15.70
2023-02-12T06:27:01.952Z,17.20
2023-02-12T06:29:30.515Z,17.40
2023-02-12T06:32:02.437Z,18.80
2023-02-12T06:34:31.496Z,15.10
2023-02-12T06:36:59.669Z,17.30
2023-02-12T06:39:34.629Z,15.20
2023-02-12T06:42:02.948Z,16.80
2023-02-12T06:44:31.539Z,18.30
2023-02-12T06:46:59.843Z,20.20
2023-02-12T06:49:28.240Z,19.60
2023-02-12T06:51:56.444Z,20.00
2023-02-12T06:54:29.614Z,25.00
2023-02-12T06:56:57.764Z,22.70
2023-02-12T06:59:25.874Z,26.10
2023-02-12T07:01:54.582Z,23.10
2023-02-12T07:04:22.900Z,25.50
2023-02-12T07:06:52.290Z,24.40
2023-02-12T07:09:20.905Z,23.60
2023-02-12T07:11:54.174Z,19.60
2023-02-12T07:14:27.805Z,17.60
2023-02-12T07:16:57.348Z,17.00
2023-02-12T07:19:25.969Z,16.90
2023-02-12T07:21:54.693Z,18.00
2023-02-12T07:24:22.920Z,15.00
2023-02-12T07:26:53.456Z,13.70
2023-02-12T07:29:21.642Z,14.80
2023-02-12T07:31:49.999Z,15.10
2023-02-12T07:34:19.058Z,13.60
2023-02-12T07:36:47.230Z,14.30
2023-02-12T07:39:16.144Z,13.60
2023-02-12T07:41:44.412Z,13.50
2023-02-12T07:44:16.007Z,13.40
2023-02-12T07:46:48.654Z,13.70
2023-02-12T07:49:20.764Z,9.60
2023-02-12T07:51:49.885Z,7.80
2023-02-12T07:54:18.824Z,6.60
2023-02-12T07:56:53.464Z,4.70
2023-02-12T07:59:22.387Z,4.30
2023-02-12T08:01:51.892Z,2.50
2023-02-12T08:04:21.834Z,2.60
2023-02-12T08:06:55.484Z,2.00
2023-02-12T08:09:33.189Z,2.20
2023-02-12T08:12:07.149Z,2.00
2023-02-12T08:14:41.207Z,2.20
2023-02-12T08:17:09.586Z,1.70
2023-02-12T08:19:37.866Z,2.10
2023-02-12T08:22:06.804Z,1.60
2023-02-12T08:24:35.104Z,1.90
2023-02-12T08:27:03.458Z,1.80
2023-02-12T08:29:37.112Z,2.20
2023-02-12T08:32:06.670Z,2.20
2023-02-12T08:34:35.827Z,2.10
2023-02-12T08:37:05.521Z,2.10
2023-02-12T08:39:34.198Z,2.20
2023-02-12T08:42:02.412Z,1.80
2023-02-12T08:44:31.801Z,2.10
2023-02-12T08:47:03.301Z,1.90
2023-02-12T08:49:32.903Z,1.80
2023-02-12T08:52:02.662Z,2.10
2023-02-12T08:54:34.473Z,1.90
2023-02-12T08:57:02.729Z,1.80
2023-02-12T08:59:31.258Z,1.90
2023-02-12T09:02:01.125Z,2.20
2023-02-12T09:04:30.393Z,2.20
2023-02-12T09:06:59.766Z,1.90
2023-02-12T09:09:28.155Z,2.00
2023-02-12T09:12:07.852Z,1.80
2023-02-12T09:14:36.535Z,1.80
2023-02-12T09:17:04.909Z,2.00
2023-02-12T09:19:33.594Z,2.00
2023-02-12T09:22:01.917Z,2.40
2023-02-12T09:24:30.367Z,2.00
2023-02-12T09:26:58.515Z,2.00
2023-02-12T09:29:27.478Z,2.20
2023-02-12T09:31:56.169Z,1.90
2023-02-12T09:34:24.888Z,2.30
2023-02-12T09:36:59.098Z,2.10
2023-02-12T09:39:30.698Z,1.70
2023-02-12T09:42:20.294Z,2.00
2023-02-12T09:45:01.469Z,1.80
2023-02-12T09:47:50.836Z,2.00
2023-02-12T09:50:30.310Z,2.10
2023-02-12T09:53:04.481Z,2.10
2023-02-12T09:55:34.350Z,2.20
2023-02-12T09:58:09.792Z,2.10
2023-02-12T10:00:38.443Z,2.30
2023-02-12T10:03:15.946Z,1.90
2023-02-12T10:05:54.599Z,1.90
2023-02-12T10:08:43.958Z,1.80
2023-02-12T10:11:32.283Z,1.90
2023-02-12T10:14:09.542Z,1.80
2023-02-12T10:16:58.067Z,1.90
2023-02-12T10:19:39.184Z,2.10
2023-02-12T10:22:19.645Z,1.80
2023-02-12T10:25:25.431Z,2.20
2023-02-12T10:27:58.149Z,1.50
2023-02-12T10:30:53.177Z,2.20
2023-02-12T10:33:25.908Z,1.70
2023-02-12T10:36:02.416Z,1.80
2023-02-12T10:38:32.963Z,1.70
2023-02-12T10:41:02.696Z,1.80
2023-02-12T10:43:31.345Z,1.80
2023-02-12T10:45:59.558Z,1.50
2023-02-12T10:48:32.199Z,1.50
2023-02-12T10:51:09.764Z,2.00
2023-02-12T10:53:40.625Z,2.00
2023-02-12T10:56:22.007Z,2.00
2023-02-12T10:58:50.493Z,2.00
2023-02-12T11:01:29.239Z,1.80
2023-02-12T11:03:59.131Z,2.80
2023-02-12T11:06:34.822Z,1.80
2023-02-12T11:09:11.093Z,1.90
2023-02-12T11:11:39.528Z,1.90
2023-02-12T11:14:22.054Z,1.70
2023-02-12T11:16:55.410Z,1.70
2023-02-12T11:19:28.393Z,1.90
2023-02-12T11:22:11.945Z,1.60
2023-02-12T11:24:46.682Z,1.50
2023-02-12T11:27:26.525Z,2.10
2023-02-12T11:30:14.493Z,1.60
2023-02-12T11:32:44.394Z,2.10
2023-02-12T11:35:26.409Z,1.90
2023-02-12T11:37:58.392Z,2.00
2023-02-12T11:40:36.143Z,2.00
2023-02-12T11:43:06.138Z,2.30
2023-02-12T11:45:49.877Z,2.50
2023-02-12T11:48:38.398Z,2.40
2023-02-12T11:51:09.360Z,2.00
2023-02-12T11:53:41.074Z,2.30
2023-02-12T11:56:11.685Z,2.20
2023-02-12T11:58:41.584Z,1.90
2023-02-12T12:01:30.024Z,1.90
2023-02-12T12:04:14.532Z,1.90
2023-02-12T12:07:03.678Z,1.90
2023-02-12T12:10:02.399Z,2.40
2023-02-12T12:12:53.414Z,2.20
2023-02-12T12:15:57.590Z,2.30
2023-02-12T12:19:06.837Z,2.30
2023-02-12T12:21:51.377Z,2.00
2023-02-12T12:24:36.833Z,1.80
2023-02-12T12:27:47.071Z,2.50
2023-02-12T12:31:00.828Z,2.90
2023-02-12T12:33:45.820Z,2.10
2023-02-12T12:36:30.337Z,2.60
2023-02-12T12:39:53.379Z,2.50
2023-02-12T12:43:25.789Z,2.60
2023-02-12T12:46:37.744Z,2.30
2023-02-12T12:49:35.192Z,2.30
2023-02-12T12:52:28.908Z,3.20
2023-02-12T12:55:13.931Z,3.00
2023-02-12T12:58:12.342Z,3.20
2023-02-12T13:01:23.142Z,2.60
2023-02-12T13:04:30.173Z,2.20
2023-02-12T13:15:40.910Z,2.90
2023-02-12T13:18:13.784Z,2.90
2023-02-12T13:20:49.296Z,3.10
2023-02-12T13:23:31.530Z,3.00
2023-02-12T13:26:10.824Z,2.90
2023-02-12T13:29:05.746Z,3.20
2023-02-12T13:31:34.496Z,3.20
2023-02-12T13:34:04.272Z,2.80
2023-02-12T13:36:32.155Z,2.60
2023-02-12T13:39:04.916Z,2.70
2023-02-12T13:41:32.364Z,2.80
2023-02-12T13:44:31.307Z,2.60
2023-02-12T13:47:11.181Z,2.70
2023-02-12T13:49:45.297Z,3.60
2023-02-12T13:52:40.361Z,2.40
2023-02-12T13:55:31.772Z,2.40
2023-02-12T13:58:37.604Z,2.90
2023-02-12T14:01:07.335Z,3.50
2023-02-12T14:03:36.000Z,2.20
2023-02-12T14:06:18.912Z,2.60
2023-02-12T14:08:56.232Z,2.50
2023-02-12T14:11:24.060Z,2.60
2023-02-12T14:13:59.951Z,2.30
2023-02-12T14:16:31.076Z,2.50
2023-02-12T14:19:36.723Z,2.30
2023-02-12T14:22:14.694Z,2.30
2023-02-12T14:24:48.211Z,2.30
2023-02-12T14:27:32.194Z,2.40
2023-02-12T14:30:01.048Z,2.40
2023-02-12T14:32:44.877Z,2.20
2023-02-12T14:35:38.467Z,2.20
2023-02-12T14:38:12.096Z,2.80
2023-02-12T14:40:44.097Z,2.60
2023-02-12T14:43:30.790Z,3.20
2023-02-12T14:46:24.568Z,2.90
2023-02-12T14:48:59.513Z,2.40
2023-02-12T14:51:33.105Z,2.60
2023-02-12T14:54:00.563Z,2.30
2023-02-12T14:56:27.859Z,2.70
2023-02-12T14:58:58.421Z,3.30
2023-02-12T15:01:29.614Z,2.80
2023-02-12T15:03:56.983Z,2.50
2023-02-12T15:06:37.595Z,2.40
2023-02-12T15:09:13.554Z,2.40
2023-02-12T15:12:06.231Z,3.00
2023-02-12T15:14:35.661Z,2.30
2023-02-12T15:17:14.729Z,2.70
2023-02-12T15:20:02.130Z,2.70
2023-02-12T15:22:36.060Z,3.40
2023-02-12T15:25:30.201Z,2.60
2023-02-12T15:35:50.873Z,2.50
2023-02-12T15:38:36.099Z,2.60
2023-02-12T15:41:05.070Z,2.60
2023-02-12T15:43:40.947Z,2.60
2023-02-12T15:46:21.649Z,2.80
2023-02-12T15:48:50.247Z,2.70
2023-02-12T15:51:44.035Z,2.60
2023-02-12T15:54:19.257Z,2.40
2023-02-12T15:56:47.632Z,1.90
2023-02-12T15:59:21.481Z,2.20
2023-02-12T16:02:07.544Z,2.70
2023-02-12T16:04:40.796Z,2.80
2023-02-12T16:07:10.298Z,2.40
2023-02-12T16:09:39.704Z,2.30
2023-02-12T16:12:19.003Z,2.60
2023-02-12T16:14:55.164Z,3.30
2023-02-12T16:17:39.737Z,2.90
2023-02-12T16:20:20.292Z,2.70
2023-02-12T16:22:49.845Z,3.00
2023-02-12T16:25:26.633Z,2.50
2023-02-12T16:28:01.644Z,3.00
2023-02-12T16:30:32.392Z,2.60
2023-02-12T16:33:01.936Z,2.80
2023-02-12T16:35:32.947Z,2.40
2023-02-12T16:38:24.437Z,2.60
2023-02-12T16:41:18.769Z,2.50
2023-02-12T16:43:48.806Z,2.80
2023-02-12T16:46:18.161Z,3.20
2023-02-12T16:48:51.933Z,3.30
2023-02-12T16:51:25.162Z,3.40
2023-02-12T16:53:54.354Z,3.40
2023-02-12T16:56:23.163Z,3.20
2023-02-12T16:58:55.628Z,3.20
2023-02-12T17:01:29.599Z,2.50
2023-02-12T17:04:03.983Z,2.70
2023-02-12T17:06:32.851Z,2.60
2023-02-12T17:09:06.437Z,2.90
2023-02-12T17:11:35.011Z,2.40
2023-02-12T17:14:03.617Z,2.20
2023-02-12T17:16:37.317Z,2.50
2023-02-12T17:19:06.923Z,2.90
2023-02-12T17:21:44.859Z,2.90
2023-02-12T17:24:22.033Z,3.10
2023-02-12T17:26:56.465Z,2.90
2023-02-12T17:29:25.310Z,2.40
2023-02-12T17:31:54.208Z,2.30
2023-02-12T17:34:23.186Z,2.40
2023-02-12T17:36:52.453Z,2.50
2023-02-12T17:39:21.317Z,2.10
2023-02-12T17:41:51.930Z,2.50
2023-02-12T17:44:20.701Z,2.50
2023-02-12T17:46:51.018Z,2.60
2023-02-12T17:49:19.406Z,2.80
2023-02-12T17:51:48.781Z,3.10
2023-02-12T17:54:18.966Z,3.40
2023-02-12T17:56:52.595Z,2.70
2023-02-12T17:59:26.021Z,2.80
2023-02-12T18:01:59.416Z,2.80
2023-02-12T18:04:32.015Z,2.80
2023-02-12T18:07:00.913Z,2.60
2023-02-12T18:09:29.378Z,2.70
2023-02-12T18:11:59.159Z,2.70
2023-02-12T18:14:27.724Z,2.30
2023-02-12T18:16:57.346Z,2.40
2023-02-12T18:19:27.180Z,2.10
2023-02-12T18:22:04.161Z,2.40
2023-02-12T18:24:35.276Z,2.10
2023-02-12T18:27:03.883Z,1.90
2023-02-12T18:29:33.678Z,2.70
2023-02-12T18:32:02.077Z,2.20
2023-02-12T18:42:28.970Z,3.60
2023-02-12T18:44:57.549Z,2.60
2023-02-12T18:47:25.914Z,3.00
2023-02-12T18:49:54.341Z,2.40
2023-02-12T18:52:28.084Z,2.50
2023-02-12T18:54:56.840Z,2.10
2023-02-12T18:57:25.444Z,2.40
2023-02-12T18:59:58.943Z,2.70
2023-02-12T19:02:27.458Z,2.70
2023-02-12T19:04:56.392Z,2.50
2023-02-12T19:07:27.377Z,2.70
2023-02-12T19:09:56.189Z,2.40
2023-02-12T19:12:26.281Z,2.10
2023-02-12T19:15:01.189Z,2.10
2023-02-12T19:17:30.175Z,2.40
2023-02-12T19:19:58.510Z,3.60
2023-02-12T19:22:26.836Z,2.20
2023-02-12T19:24:55.333Z,2.20
2023-02-12T19:27:30.867Z,2.60
2023-02-12T19:30:00.265Z,3.00
2023-02-12T19:32:29.053Z,2.70
2023-02-12T19:34:57.810Z,2.50
2023-02-12T19:37:26.116Z,2.10
2023-02-12T19:39:54.477Z,2.70
2023-02-12T19:42:23.006Z,2.60
2023-02-12T19:44:51.181Z,2.70
2023-02-12T19:47:24.844Z,2.90
2023-02-12T19:49:53.451Z,2.80
2023-02-12T19:52:21.677Z,2.40
2023-02-12T19:54:55.854Z,2.50
2023-02-12T19:57:25.094Z,2.40
2023-02-12T19:59:58.975Z,2.30
2023-02-12T20:02:27.632Z,2.30
2023-02-12T20:04:56.180Z,2.20
2023-02-12T20:07:26.172Z,1.90
2023-02-12T20:09:54.784Z,2.50
2023-02-12T20:12:22.984Z,2.40
2023-02-12T20:14:56.851Z,2.80
2023-02-12T20:17:25.227Z,2.40
2023-02-12T20:19:54.494Z,2.30
2023-02-12T20:22:27.906Z,2.40
2023-02-12T20:24:56.155Z,2.10
2023-02-12T20:27:24.829Z,2.00
2023-02-12T20:29:53.554Z,1.90
2023-02-12T20:32:22.653Z,2.40
2023-02-12T20:34:51.847Z,2.00
2023-02-12T20:37:20.849Z,2.30
2023-02-12T20:39:49.457Z,2.10
2023-02-12T20:42:17.951Z,1.60
2023-02-12T20:44:47.027Z,1.90
2023-02-12T20:47:15.619Z,2.60
2023-02-12T20:49:44.126Z,2.30
2023-02-12T20:52:17.846Z,2.00
2023-02-12T20:54:49.119Z,2.10
2023-02-12T20:57:18.415Z,2.30
2023-02-12T20:59:49.192Z,2.00
2023-02-12T21:02:18.701Z,1.90
2023-02-12T21:04:46.987Z,2.10
2023-02-12T21:07:15.310Z,1.60
2023-02-12T21:09:44.022Z,1.90
2023-02-12T21:12:12.644Z,1.90
2023-02-12T21:14:41.048Z,1.80
2023-02-12T21:17:13.069Z,1.40
2023-02-12T21:19:41.357Z,1.70
2023-02-12T21:22:09.591Z,1.50
2023-02-12T21:24:42.939Z,1.70
2023-02-12T21:27:12.161Z,1.90
2023-02-12T21:29:41.846Z,1.80
2023-02-12T21:32:10.545Z,1.70
2023-02-12T21:34:40.257Z,1.60
2023-02-12T21:37:13.642Z,1.50
2023-02-12T21:39:43.157Z,2.00
2023-02-12T21:42:11.543Z,2.00
2023-02-12T21:44:40.142Z,1.60
2023-02-12T21:47:09.114Z,2.00
2023-02-12T21:49:37.906Z,2.20
2023-02-12T21:52:12.043Z,1.90
2023-02-12T21:54:40.829Z,2.20
2023-02-12T21:57:09.107Z,1.90
2023-02-12T21:59:37.586Z,2.20
2023-02-12T22:02:06.209Z,2.20
2023-02-12T22:04:34.630Z,2.20
2023-02-12T22:07:03.761Z,2.10
2023-02-12T22:09:40.701Z,2.10
2023-02-12T22:12:14.325Z,2.10
2023-02-12T22:14:43.298Z,1.90
2023-02-12T22:17:12.083Z,2.40
2023-02-12T22:19:46.098Z,2.00
2023-02-12T22:22:14.471Z,1.90
2023-02-12T22:24:42.872Z,1.90
2023-02-12T22:27:11.862Z,2.10
2023-02-12T22:29:40.116Z,2.20
2023-02-12T22:32:08.558Z,2.20
2023-02-12T22:34:42.170Z,2.10
2023-02-12T22:37:10.881Z,2.20
2023-02-12T22:39:39.117Z,2.20
2023-02-12T22:42:07.844Z,2.30
2023-02-12T22:44:37.061Z,2.80
2023-02-12T22:47:05.319Z,2.50
2023-02-12T22:49:38.730Z,2.80
2023-02-12T22:52:07.113Z,2.80
2023-02-12T22:54:42.139Z,3.50
2023-02-12T22:57:10.349Z,2.80
2023-02-12T22:59:38.691Z,3.10
2023-02-12T23:02:15.720Z,3.70
2023-02-12T23:04:44.237Z,2.70
2023-02-12T23:07:12.518Z,3.20
2023-02-12T23:09:42.292Z,2.70
2023-02-12T23:12:15.691Z,3.40
2023-02-12T23:14:44.118Z,3.50
2023-02-12T23:17:12.571Z,3.50
2023-02-12T23:19:40.738Z,3.30
2023-02-12T23:22:09.150Z,3.80
2023-02-12T23:24:37.541Z,3.50
2023-02-12T23:27:06.233Z,4.00
2023-02-12T23:29:35.436Z,4.30
2023-02-12T23:32:04.135Z,3.30
2023-02-12T23:34:32.691Z,3.50
2023-02-12T23:37:03.172Z,3.50
2023-02-12T23:39:31.838Z,3.00
2023-02-12T23:42:00.391Z,3.20
2023-02-12T23:44:34.212Z,3.60
2023-02-12T23:47:07.459Z,3.80
2023-02-12T23:49:37.287Z,3.00
2023-02-12T23:52:05.588Z,3.80
2023-02-12T23:54:34.629Z,3.30
2023-02-12T23:57:08.038Z,3.20
2023-02-12T23:59:37.080Z,3.40
